createdAt,value
2022-10-05T00:00:22.710Z,3.30
2022-10-05T00:02:45.043Z,3.70
2022-10-05T00:05:30.989Z,3.37
2022-10-05T00:07:54.195Z,3.10
2022-10-05T00:10:18.062Z,3.80
2022-10-05T00:12:39.535Z,3.33
2022-10-05T00:15:01.530Z,3.70
2022-10-05T00:17:25.520Z,3.43
2022-10-05T00:19:52.028Z,3.83
2022-10-05T00:22:19.932Z,3.87
2022-10-05T00:24:41.522Z,4.23
2022-10-05T00:27:24.615Z,3.93
2022-10-05T00:29:47.293Z,4.00
2022-10-05T00:32:10.428Z,3.33
2022-10-05T00:34:34.394Z,3.63
2022-10-05T00:36:55.851Z,4.30
2022-10-05T00:39:18.566Z,3.90
2022-10-05T00:42:04.208Z,3.50
2022-10-05T00:45:03.187Z,3.53
2022-10-05T00:47:33.654Z,3.43
2022-10-05T00:50:05.737Z,3.70
2022-10-05T00:52:45.309Z,3.97
2022-10-05T00:55:13.349Z,3.87
2022-10-05T00:57:44.270Z,3.87
2022-10-05T01:00:15.796Z,4.00
2022-10-05T01:02:59.089Z,3.93
2022-10-05T01:05:51.023Z,3.73
2022-10-05T01:08:22.537Z,3.83
2022-10-05T01:10:52.987Z,3.97
2022-10-05T01:13:44.897Z,4.40
2022-10-05T01:16:16.775Z,5.60
2022-10-05T01:18:53.612Z,6.77
2022-10-05T01:21:20.346Z,4.90
2022-10-05T01:23:56.846Z,5.00
2022-10-05T01:26:39.924Z,4.73
2022-10-05T01:29:07.296Z,5.30
2022-10-05T01:31:32.638Z,5.50
2022-10-05T01:34:18.111Z,4.30
2022-10-05T01:37:17.935Z,4.37
2022-10-05T01:40:11.452Z,3.83
2022-10-05T01:42:32.885Z,4.50
2022-10-05T01:45:12.261Z,4.17
2022-10-05T01:47:47.125Z,4.57
2022-10-05T01:50:34.683Z,4.77
2022-10-05T01:53:23.892Z,4.73
2022-10-05T01:55:56.420Z,4.63
2022-10-05T01:58:24.008Z,4.70
2022-10-05T02:00:56.212Z,5.03
2022-10-05T02:03:40.081Z,4.33
2022-10-05T02:06:11.516Z,4.50
2022-10-05T02:08:58.813Z,5.10
2022-10-05T02:11:20.387Z,5.33
2022-10-05T02:13:49.336Z,6.20
2022-10-05T02:16:17.252Z,6.13
2022-10-05T02:18:45.038Z,5.93
2022-10-05T02:21:08.296Z,4.87
2022-10-05T02:23:34.420Z,5.67
2022-10-05T02:25:56.453Z,5.33
2022-10-05T02:28:32.235Z,5.00
2022-10-05T02:31:06.947Z,6.00
2022-10-05T02:33:31.060Z,5.47
2022-10-05T02:35:52.965Z,5.87
2022-10-05T02:38:37.468Z,5.13
2022-10-05T02:41:16.739Z,5.30
2022-10-05T02:43:53.455Z,5.43
2022-10-05T02:47:02.711Z,5.50
2022-10-05T02:49:29.032Z,5.50
2022-10-05T02:52:16.666Z,5.37
2022-10-05T02:55:10.329Z,5.33
2022-10-05T02:57:39.116Z,6.17
2022-10-05T03:00:13.292Z,5.97
2022-10-05T03:02:44.065Z,6.07
2022-10-05T03:05:18.757Z,5.60
2022-10-05T03:08:02.709Z,5.83
2022-10-05T03:10:39.246Z,5.40
2022-10-05T03:13:17.368Z,6.43
2022-10-05T03:15:54.205Z,6.60
2022-10-05T03:18:21.868Z,8.70
2022-10-05T03:20:58.427Z,6.90
2022-10-05T03:23:57.494Z,6.00
2022-10-05T03:26:36.887Z,6.03
2022-10-05T03:28:58.289Z,6.30
2022-10-05T03:31:44.253Z,6.00
2022-10-05T03:34:13.400Z,5.50
2022-10-05T03:36:59.292Z,5.47
2022-10-05T03:39:45.147Z,5.77
2022-10-05T03:42:32.553Z,5.87
2022-10-05T03:44:59.786Z,5.77
2022-10-05T03:47:35.970Z,5.97
2022-10-05T03:50:04.417Z,6.23
2022-10-05T03:52:38.863Z,6.20
2022-10-05T03:55:06.963Z,5.50
2022-10-05T03:57:33.570Z,5.80
2022-10-05T04:00:13.144Z,5.90
2022-10-05T04:02:40.341Z,5.90
2022-10-05T04:05:10.687Z,5.93
2022-10-05T04:07:56.887Z,5.40
2022-10-05T04:10:31.298Z,5.53
2022-10-05T04:13:01.373Z,6.10
2022-10-05T04:15:40.172Z,6.33
2022-10-05T04:18:07.906Z,8.70
2022-10-05T04:20:37.196Z,8.20
2022-10-05T04:23:10.668Z,7.77
2022-10-05T04:25:42.028Z,6.53
2022-10-05T04:28:22.191Z,5.67
2022-10-05T04:30:48.206Z,5.30
2022-10-05T04:33:15.961Z,5.73
2022-10-05T04:35:52.376Z,6.30
2022-10-05T04:38:38.928Z,6.80
2022-10-05T04:41:42.422Z,7.73
2022-10-05T04:44:22.511Z,8.40
2022-10-05T04:47:03.357Z,7.73
2022-10-05T04:49:51.539Z,11.27
2022-10-05T04:52:31.817Z,9.97
2022-10-05T04:54:56.305Z,8.07
2022-10-05T04:57:49.171Z,8.30
2022-10-05T05:00:58.680Z,7.70
2022-10-05T05:03:34.715Z,7.73
2022-10-05T05:06:16.807Z,6.27
2022-10-05T05:09:10.446Z,7.30
2022-10-05T05:11:52.135Z,7.43
2022-10-05T05:14:19.517Z,6.97
2022-10-05T05:16:46.265Z,7.37
2022-10-05T05:19:45.311Z,8.07
2022-10-05T05:22:26.936Z,9.57
2022-10-05T05:24:54.237Z,8.93
2022-10-05T05:27:26.236Z,10.80
2022-10-05T05:30:06.945Z,10.17
2022-10-05T05:32:56.160Z,10.57
2022-10-05T05:35:24.924Z,10.90
2022-10-05T05:38:20.047Z,10.53
2022-10-05T05:40:55.452Z,10.43
2022-10-05T05:43:44.299Z,8.90
2022-10-05T05:46:30.073Z,10.60
2022-10-05T05:49:15.955Z,10.33
2022-10-05T05:51:43.892Z,11.83
2022-10-05T05:54:20.568Z,10.63
2022-10-05T05:56:48.114Z,11.57
2022-10-05T05:59:18.547Z,10.03
2022-10-05T06:01:46.018Z,10.07
2022-10-05T06:04:30.857Z,10.00
2022-10-05T06:06:54.309Z,10.60
2022-10-05T06:09:35.732Z,10.90
2022-10-05T06:12:04.411Z,10.47
2022-10-05T06:14:51.049Z,10.33
2022-10-05T06:17:16.722Z,11.07
2022-10-05T06:19:40.522Z,11.47
2022-10-05T06:22:13.322Z,10.40
2022-10-05T06:24:46.324Z,11.57
2022-10-05T06:27:13.733Z,11.90
2022-10-05T06:29:49.637Z,12.23
2022-10-05T06:32:26.469Z,12.07
2022-10-05T06:34:55.800Z,11.10
2022-10-05T06:37:34.116Z,11.73
2022-10-05T06:40:11.093Z,10.63
2022-10-05T06:42:46.925Z,11.17
2022-10-05T06:45:40.936Z,11.07
2022-10-05T06:48:14.727Z,11.00
2022-10-05T06:50:41.560Z,11.53
2022-10-05T06:53:31.299Z,12.23
2022-10-05T06:56:01.741Z,12.63
2022-10-05T06:58:34.877Z,12.33
2022-10-05T07:01:05.652Z,13.00
2022-10-05T07:04:05.176Z,12.57
2022-10-05T07:06:49.380Z,12.10
2022-10-05T07:09:48.496Z,11.93
2022-10-05T07:12:48.767Z,11.80
2022-10-05T07:15:46.075Z,11.90
2022-10-05T07:18:26.816Z,12.00
2022-10-05T07:21:12.703Z,12.80
2022-10-05T07:23:46.386Z,12.17
2022-10-05T07:26:17.703Z,12.07
2022-10-05T07:28:50.967Z,12.53
2022-10-05T07:31:21.603Z,11.03
2022-10-05T07:33:51.073Z,11.27
2022-10-05T07:36:37.289Z,11.93
2022-10-05T07:39:05.507Z,11.77
2022-10-05T07:42:13.287Z,11.33
2022-10-05T07:44:48.316Z,11.77
2022-10-05T07:47:30.249Z,11.57
2022-10-05T07:50:02.575Z,10.63
2022-10-05T07:52:34.354Z,11.80
2022-10-05T07:55:06.712Z,12.10
2022-10-05T07:57:48.205Z,11.83
2022-10-05T08:00:21.370Z,10.37
2022-10-05T08:02:52.036Z,10.90
2022-10-05T08:05:22.854Z,9.63
2022-10-05T08:07:45.843Z,9.67
2022-10-05T08:10:41.663Z,10.40
2022-10-05T08:13:15.002Z,9.17
2022-10-05T08:15:47.372Z,8.77
2022-10-05T08:18:21.779Z,8.83
2022-10-05T08:20:54.773Z,9.03
2022-10-05T08:23:28.474Z,8.10
2022-10-05T08:26:02.124Z,7.77
2022-10-05T08:28:34.154Z,8.00
2022-10-05T08:31:07.930Z,5.30
2022-10-05T08:33:54.256Z,5.63
2022-10-05T08:36:23.560Z,5.80
2022-10-05T08:38:45.692Z,5.73
2022-10-05T08:41:16.077Z,5.83
2022-10-05T08:43:55.965Z,5.70
2022-10-05T08:46:26.234Z,5.87
2022-10-05T08:48:59.703Z,7.50
2022-10-05T08:51:21.097Z,8.98
2022-10-05T08:54:07.495Z,7.93
2022-10-05T08:56:34.950Z,6.90
2022-10-05T08:59:38.192Z,5.45
2022-10-05T09:02:40.939Z,4.70
2022-10-05T09:05:37.200Z,4.40
2022-10-05T09:08:30.966Z,4.45
2022-10-05T09:11:05.848Z,3.80
2022-10-05T09:13:48.193Z,4.25
2022-10-05T09:16:35.676Z,4.60
2022-10-05T09:18:57.114Z,4.25
2022-10-05T09:21:27.314Z,4.22
2022-10-05T09:24:03.746Z,6.32
2022-10-05T09:26:45.180Z,4.05
2022-10-05T09:29:29.090Z,5.30
2022-10-05T09:32:23.782Z,6.43
2022-10-05T09:35:10.121Z,4.20
2022-10-05T09:37:37.253Z,2.90
2022-10-05T09:40:01.848Z,2.50
2022-10-05T09:42:47.478Z,2.60
2022-10-05T09:45:11.862Z,2.70
2022-10-05T09:47:36.281Z,2.80
2022-10-05T09:50:03.612Z,2.40
2022-10-05T09:52:33.909Z,2.40
2022-10-05T09:55:14.428Z,2.17
2022-10-05T09:57:54.894Z,2.30
2022-10-05T10:00:22.953Z,2.58
2022-10-05T10:03:08.188Z,2.20
2022-10-05T10:05:41.937Z,2.33
2022-10-05T10:08:09.352Z,2.20
2022-10-05T10:10:55.730Z,2.03
2022-10-05T10:13:53.614Z,2.17
2022-10-05T10:16:27.341Z,2.25
2022-10-05T10:19:17.904Z,2.08
2022-10-05T10:21:51.666Z,2.30
2022-10-05T10:24:35.404Z,4.40
2022-10-05T10:27:34.527Z,4.43
2022-10-05T10:30:26.299Z,2.88
2022-10-05T10:33:15.563Z,2.50
2022-10-05T10:36:02.911Z,4.35
2022-10-05T10:38:28.647Z,5.60
2022-10-05T10:41:08.544Z,4.53
2022-10-05T10:43:55.588Z,4.97
2022-10-05T10:46:35.793Z,5.47
2022-10-05T10:49:06.999Z,3.33
2022-10-05T10:51:47.391Z,3.10
2022-10-05T10:54:46.395Z,2.42
2022-10-05T10:57:10.774Z,2.45
2022-10-05T10:59:54.167Z,2.50
2022-10-05T11:02:42.417Z,2.10
2022-10-05T11:05:27.982Z,2.60
2022-10-05T11:07:55.187Z,2.50
2022-10-05T11:10:20.043Z,2.45
2022-10-05T11:13:03.372Z,2.25
2022-10-05T11:15:43.645Z,2.85
2022-10-05T11:18:20.487Z,2.33
2022-10-05T11:20:44.678Z,2.13
2022-10-05T11:23:19.934Z,2.13
2022-10-05T11:25:49.113Z,2.55
2022-10-05T11:28:28.624Z,1.95
2022-10-05T11:31:04.829Z,2.33
2022-10-05T11:33:44.504Z,2.55
2022-10-05T11:37:07.573Z,2.40
2022-10-05T11:39:53.091Z,2.30
2022-10-05T11:42:26.703Z,2.38
2022-10-05T11:45:09.014Z,2.20
2022-10-05T11:47:39.193Z,2.50
2022-10-05T11:50:20.444Z,2.30
2022-10-05T11:52:50.381Z,1.80
2022-10-05T11:55:40.572Z,2.00
2022-10-05T11:58:13.485Z,2.00
2022-10-05T12:00:42.578Z,2.30
2022-10-05T12:03:12.981Z,1.88
2022-10-05T12:05:49.715Z,2.60
2022-10-05T12:08:26.394Z,2.08
2022-10-05T12:11:08.163Z,2.35
2022-10-05T12:13:53.665Z,4.00
2022-10-05T12:16:27.576Z,3.78
2022-10-05T12:18:57.235Z,4.43
2022-10-05T12:21:31.183Z,4.15
2022-10-05T12:23:59.283Z,3.72
2022-10-05T12:26:26.282Z,4.70
2022-10-05T12:28:53.704Z,3.70
2022-10-05T12:31:29.004Z,3.95
2022-10-05T12:34:01.759Z,3.33
2022-10-05T12:36:36.025Z,3.55
2022-10-05T12:39:39.242Z,3.03
2022-10-05T12:42:41.962Z,3.03
2022-10-05T12:45:16.604Z,3.75
2022-10-05T12:47:54.261Z,3.90
2022-10-05T12:50:41.987Z,3.67
2022-10-05T12:53:22.476Z,2.60
2022-10-05T12:56:08.049Z,2.40
2022-10-05T12:58:48.245Z,2.13
2022-10-05T13:01:21.597Z,1.48
2022-10-05T13:03:50.884Z,1.70
2022-10-05T13:06:20.232Z,1.60
2022-10-05T13:08:56.023Z,1.48
2022-10-05T13:11:36.001Z,1.60
2022-10-05T13:14:12.481Z,1.75
2022-10-05T13:16:56.208Z,1.42
2022-10-05T13:19:32.287Z,1.80
2022-10-05T13:22:31.148Z,1.90
2022-10-05T13:25:03.692Z,1.70
2022-10-05T13:27:36.919Z,2.60
2022-10-05T13:30:11.107Z,1.90
2022-10-05T13:32:41.652Z,1.85
2022-10-05T13:35:22.181Z,2.35
2022-10-05T13:38:21.957Z,1.75
2022-10-05T13:41:11.761Z,2.13
2022-10-05T13:43:54.696Z,1.80
2022-10-05T13:46:37.626Z,1.90
2022-10-05T13:49:02.265Z,1.92
2022-10-05T13:51:28.273Z,2.05
2022-10-05T13:53:56.187Z,1.90
2022-10-05T13:56:25.797Z,1.70
2022-10-05T13:59:18.437Z,1.80
2022-10-05T14:02:05.283Z,1.80
2022-10-05T14:04:49.080Z,1.83
2022-10-05T14:08:01.344Z,1.55
2022-10-05T14:10:49.321Z,1.75
2022-10-05T14:13:34.088Z,1.95
2022-10-05T14:16:23.371Z,1.67
2022-10-05T14:18:58.502Z,1.83
2022-10-05T14:21:23.248Z,1.70
2022-10-05T14:23:44.842Z,2.03
2022-10-05T14:26:31.478Z,1.80
2022-10-05T14:29:19.372Z,2.45
2022-10-05T14:31:51.141Z,1.70
2022-10-05T14:34:35.868Z,1.95
2022-10-05T14:37:04.872Z,1.80
2022-10-05T14:39:28.113Z,1.92
2022-10-05T14:41:50.934Z,1.92
2022-10-05T14:44:15.458Z,1.80
2022-10-05T14:46:38.576Z,1.88
2022-10-05T14:49:24.213Z,1.85
2022-10-05T14:51:45.708Z,1.70
2022-10-05T14:54:25.207Z,1.70
2022-10-05T14:56:56.547Z,2.08
2022-10-05T14:59:50.358Z,1.55
2022-10-05T15:02:55.708Z,1.77
2022-10-05T15:05:25.468Z,1.65
2022-10-05T15:07:49.347Z,1.60
2022-10-05T15:10:36.416Z,2.08
2022-10-05T15:13:12.177Z,1.70
2022-10-05T15:15:44.647Z,1.70
2022-10-05T15:18:11.880Z,1.70
2022-10-05T15:20:56.220Z,1.65
2022-10-05T15:23:47.508Z,1.48
2022-10-05T15:26:50.566Z,44.00
2022-10-05T15:29:47.295Z,1.70
2022-10-05T15:32:50.194Z,1.65
2022-10-05T15:35:27.132Z,1.50
2022-10-05T15:38:04.576Z,1.75
2022-10-05T15:40:33.556Z,1.50
2022-10-05T15:43:02.915Z,1.65
2022-10-05T15:45:32.715Z,1.70
2022-10-05T15:48:07.594Z,1.63
2022-10-05T15:50:36.965Z,1.90
2022-10-05T15:53:25.294Z,1.67
2022-10-05T15:56:03.699Z,1.50
2022-10-05T15:58:45.123Z,1.67
2022-10-05T16:01:10.198Z,2.00
2022-10-05T16:03:42.487Z,1.73
2022-10-05T16:06:35.441Z,2.38
2022-10-05T16:09:21.501Z,1.67
2022-10-05T16:11:55.012Z,1.88
2022-10-05T16:14:38.757Z,2.20
2022-10-05T16:17:40.947Z,1.92
2022-10-05T16:20:08.457Z,2.20
2022-10-05T16:22:49.100Z,2.85
2022-10-05T16:25:22.849Z,2.55
2022-10-05T16:28:11.651Z,2.75
2022-10-05T16:31:06.682Z,2.75
2022-10-05T16:34:06.594Z,4.68
2022-10-05T16:36:40.338Z,3.72
2022-10-05T16:39:20.449Z,1.88
2022-10-05T16:42:15.880Z,1.63
2022-10-05T16:44:46.130Z,4.45
2022-10-05T16:47:27.565Z,5.32
2022-10-05T16:50:11.991Z,5.82
2022-10-05T16:52:37.114Z,3.65
2022-10-05T16:55:04.796Z,3.28
2022-10-05T16:57:32.460Z,3.15
2022-10-05T17:00:03.591Z,4.70
2022-10-05T17:02:39.272Z,2.38
2022-10-05T17:05:39.900Z,2.38
2022-10-05T17:08:29.297Z,2.70
2022-10-05T17:10:50.707Z,1.95
2022-10-05T17:13:19.705Z,2.15
2022-10-05T17:16:19.033Z,2.80
2022-10-05T17:18:59.654Z,2.42
2022-10-05T17:21:34.706Z,2.10
2022-10-05T17:24:11.318Z,2.40
2022-10-05T17:26:46.297Z,3.13
2022-10-05T17:29:30.680Z,2.67
2022-10-05T17:32:08.061Z,2.00
2022-10-05T17:34:34.875Z,2.40
2022-10-05T17:37:35.161Z,2.30
2022-10-05T17:39:57.677Z,2.20
2022-10-05T17:42:39.452Z,2.28
2022-10-05T17:45:20.826Z,2.85
2022-10-05T17:47:57.846Z,3.97
2022-10-05T17:51:02.603Z,3.70
2022-10-05T17:53:57.961Z,6.28
2022-10-05T17:56:22.107Z,3.33
2022-10-05T17:58:55.454Z,3.53
2022-10-05T18:01:25.196Z,6.40
2022-10-05T18:03:50.444Z,5.88
2022-10-05T18:06:24.355Z,3.50
2022-10-05T18:08:47.212Z,3.92
2022-10-05T18:11:08.643Z,2.65
2022-10-05T18:13:49.973Z,2.33
2022-10-05T18:16:12.634Z,2.35
2022-10-05T18:18:44.548Z,2.53
2022-10-05T18:21:14.767Z,2.15
2022-10-05T18:23:37.022Z,2.90
2022-10-05T18:26:28.165Z,2.60
2022-10-05T18:29:45.124Z,3.10
2022-10-05T18:32:26.919Z,3.72
2022-10-05T18:35:07.776Z,3.10
2022-10-05T18:37:36.996Z,2.75
2022-10-05T18:40:08.693Z,2.90
2022-10-05T18:42:41.404Z,3.20
2022-10-05T18:45:23.983Z,7.88
2022-10-05T18:47:54.061Z,3.63
2022-10-05T18:50:25.084Z,4.30
2022-10-05T18:53:14.329Z,4.75
2022-10-05T18:55:45.134Z,3.30
2022-10-05T18:58:28.322Z,2.67
2022-10-05T19:01:22.452Z,3.10
2022-10-05T19:03:59.083Z,3.42
2022-10-05T19:06:24.911Z,3.72
2022-10-05T19:09:13.752Z,3.38
2022-10-05T19:12:14.295Z,3.10
2022-10-05T19:14:45.301Z,2.80
2022-10-05T19:17:09.545Z,2.65
2022-10-05T19:19:43.923Z,3.08
2022-10-05T19:22:33.314Z,2.60
2022-10-05T19:25:08.196Z,2.80
2022-10-05T19:27:46.509Z,2.72
2022-10-05T19:30:18.020Z,2.75
2022-10-05T19:33:14.786Z,2.60
2022-10-05T19:35:50.922Z,2.53
2022-10-05T19:38:30.104Z,2.40
2022-10-05T19:41:12.049Z,3.00
2022-10-05T19:43:59.217Z,2.80
2022-10-05T19:46:20.713Z,2.70
2022-10-05T19:48:47.405Z,2.25
2022-10-05T19:51:16.044Z,2.80
2022-10-05T19:53:43.191Z,3.03
2022-10-05T19:56:20.767Z,2.80
2022-10-05T19:58:42.208Z,2.65
2022-10-05T20:01:06.813Z,2.75
2022-10-05T20:03:37.922Z,2.50
2022-10-05T20:06:01.556Z,2.95
2022-10-05T20:08:27.585Z,2.45
2022-10-05T20:11:08.544Z,2.75
2022-10-05T20:13:33.384Z,2.67
2022-10-05T20:16:31.740Z,2.75
2022-10-05T20:19:11.826Z,2.53
2022-10-05T20:21:37.327Z,1.98
2022-10-05T20:24:14.244Z,1.85
2022-10-05T20:27:16.101Z,2.30
2022-10-05T20:29:40.052Z,1.98
2022-10-05T20:32:19.728Z,2.47
2022-10-05T20:34:43.361Z,2.10
2022-10-05T20:37:04.890Z,2.35
2022-10-05T20:39:26.400Z,2.30
2022-10-05T20:41:48.243Z,2.10
2022-10-05T20:44:10.221Z,2.15
2022-10-05T20:46:31.733Z,2.42
2022-10-05T20:48:53.836Z,2.28
2022-10-05T20:51:19.316Z,2.40
2022-10-05T20:53:40.963Z,2.30
2022-10-05T20:56:04.615Z,1.95
2022-10-05T20:58:26.445Z,2.20
2022-10-05T21:01:06.719Z,2.00
2022-10-05T21:03:28.417Z,2.33
2022-10-05T21:05:50.387Z,2.47
2022-10-05T21:08:11.851Z,2.58
2022-10-05T21:10:33.316Z,2.35
2022-10-05T21:12:54.771Z,2.20
2022-10-05T21:15:16.259Z,2.10
2022-10-05T21:17:38.833Z,2.30
2022-10-05T21:20:00.431Z,2.80
2022-10-05T21:22:22.506Z,2.60
2022-10-05T21:24:44.035Z,2.42
2022-10-05T21:27:06.094Z,2.20
2022-10-05T21:29:28.193Z,2.28
2022-10-05T21:31:49.702Z,2.50
2022-10-05T21:34:11.336Z,2.60
2022-10-05T21:36:33.141Z,2.20
2022-10-05T21:38:55.020Z,2.38
2022-10-05T21:41:17.464Z,2.50
2022-10-05T21:43:39.661Z,2.22
2022-10-05T21:46:01.682Z,2.50
2022-10-05T21:48:23.376Z,2.45
2022-10-05T21:50:45.791Z,2.60
2022-10-05T21:53:10.655Z,2.30
2022-10-05T21:55:35.815Z,2.45
2022-10-05T21:57:58.689Z,2.78
2022-10-05T22:00:20.578Z,2.28
2022-10-05T22:02:42.324Z,2.05
2022-10-05T22:05:03.929Z,2.25
2022-10-05T22:07:25.411Z,1.80
2022-10-05T22:09:48.283Z,2.30
2022-10-05T22:12:09.950Z,2.25
2022-10-05T22:14:32.163Z,1.88
2022-10-05T22:16:54.300Z,2.28
2022-10-05T22:19:19.060Z,2.33
2022-10-05T22:21:41.901Z,2.20
2022-10-05T22:24:04.057Z,2.33
2022-10-05T22:26:25.735Z,2.30
2022-10-05T22:28:48.074Z,2.50
2022-10-05T22:31:10.742Z,2.53
2022-10-05T22:33:32.260Z,2.40
2022-10-05T22:35:54.351Z,2.45
2022-10-05T22:38:16.048Z,2.40
2022-10-05T22:40:37.517Z,2.22
2022-10-05T22:42:58.996Z,2.40
2022-10-05T22:45:20.575Z,2.10
2022-10-05T22:47:43.030Z,2.30
2022-10-05T22:50:04.795Z,2.53
2022-10-05T22:52:26.896Z,2.50
2022-10-05T22:54:48.397Z,2.60
2022-10-05T22:57:09.841Z,2.65
2022-10-05T22:59:31.316Z,2.60
2022-10-05T23:01:52.928Z,2.85
2022-10-05T23:04:14.514Z,2.50
2022-10-05T23:06:35.962Z,2.63
2022-10-05T23:08:57.477Z,2.75
2022-10-05T23:11:23.584Z,2.60
2022-10-05T23:13:45.166Z,2.70
2022-10-05T23:16:18.074Z,2.53
2022-10-05T23:18:40.296Z,2.78
2022-10-05T23:21:02.716Z,2.58
2022-10-05T23:23:25.459Z,2.50
2022-10-05T23:25:46.933Z,2.90
2022-10-05T23:28:08.452Z,2.83
2022-10-05T23:30:30.050Z,2.53
2022-10-05T23:32:51.550Z,2.40
2022-10-05T23:35:13.354Z,2.58
2022-10-05T23:37:43.723Z,2.80
2022-10-05T23:40:07.184Z,2.72
2022-10-05T23:42:28.616Z,2.70
2022-10-05T23:44:50.082Z,2.70
2022-10-05T23:47:11.576Z,3.00
2022-10-05T23:49:33.039Z,2.60
2022-10-05T23:51:54.500Z,2.50
2022-10-05T23:54:16.331Z,2.38
2022-10-05T23:56:37.795Z,2.80
2022-10-05T23:58:59.284Z,2.70
